Ana Sayfa
METAR-TAF:

METAR-TAF

Havaalanları :

Sanford-Lee County Regional Airport

Sanford, Kuzey Carolina, Amerika Birleşik Devletleri

Enlem: 35-34-57N, Boylam: 079-06-05W, yükseklik: 75 m

Güncel hava durumu gözlemi

Rapor saat 04:15 UTC de 24 dakika önce yapıldı.
Sakin rüzgar
Sıcaklık 13°C
Nem 100%
Basınç 1016 hPa
Görüş mesafesi: 16.1 km
2900 ft yükseklikte parçalı bulutlu
3600 ft yükseklikte parçalı çok bulutlu

METAR: KTTA 100415Z AUTO 00000KT 10SM SCT029 BKN036 13/13 A2999 RMK AO2 T01300130

Saat: 23:39 (04:39 UTC)


TAF: eksik

4.000'den fazla havaalanı için hava durumu gözlemleri ve tahminleri (METAR ve TAF raporları).

Kullanılabilir istasyonlar harita üzerinde sarı ve kırmızı noktalarla gösterilir.

İstasyonun adını görmek için fareyi noktanın üzerinde gezdirin.

Sonrasında hava gözlem ve tahminlerini görmek için tıklayın.

Haritayı değiştirmek için: yaklaştırmak için siyah artı işaretli yeşil düğmeye ve uzaklaştırmak için de eksi işaretli düğmeye hızla tıklayın; bitişik haritalar için yeşil okları kullanın.


METAR-TAF: